Thunderstorms From: 25-05-2018 15:00 Until: 26-05-2018 15:00 warning for: Thunderstorms Level: Yellow info button

Although rather usual in this region, locally or potentially dangerous phenomena are expected. (such as local winds, summer thunderstorms, rising streams or high waves) Be aware and pay attention to the latest weather updates, especially if you carry out activities exposed to weather or close to a stream or shoreline. 


Meteo18 Weather Cam more information Meteo18 Weather Cam


warning for Thunderstorms more information blitzortung!


Rain radar more information rain snow radar


Visit our other weather sites:

Template documentation
and downloads

And another site



Weather Underground History page Text

Daily Summary for August 12, 2016 Units:  Metric    English   Both
« Previous Day
Next Day »
Daily Weekly Monthly Yearly Custom
  High: Low: Average:
Temperature: -17.8 °C -11.6 °C -6.8 °C
Dew Point: -17.8 °C -13.1 °C -11.1 °C
Humidity: Humidity % 42 % 63 %
Wind Speed: 0 km/h 0 km/h 3.1 km/h
Wind Gust: 0 km/h - -
Wind:- - SSE
Pressure: 0 hPa 34669.3 hPa -
Precipitation: 0 mm    
Historical Graphs
 
 
Tabular Data for August 12, 2016
Time Temperature Dew Point Pressure Wind Wind Speed Wind Gust Humidity Rainfall Rate (Hourly)
-17.8 °C -17.8 °C 0 hPa Calm     Humidity % 0 mm
00:02 -9.1 °C -11.8 °C 34703.1 hPa Calm     73 % 0 mm
00:07 -9.1 °C -11.7 °C 34703.1 hPa Calm     74 % 0 mm
00:12 -9.1 °C -11.7 °C 34703.1 hPa Calm     74 % 0 mm
00:17 -9.1 °C -11.7 °C 34703.1 hPa Calm     74 % 0 mm
00:22 -9.3 °C -11.8 °C 34703.1 hPa Calm     74 % 0 mm
00:32 -9.4 °C -11.9 °C 34703.1 hPa Calm     75 % 0 mm
00:42 -9.6 °C -12.1 °C 34716.7 hPa Calm     75 % 0 mm
00:47 -9.7 °C -12 °C 34716.7 hPa Calm     76 % 0 mm
00:52 -9.8 °C -12 °C 34716.7 hPa Calm     77 % 0 mm
00:57 -9.8 °C -12.1 °C 34716.7 hPa Calm     77 % 0 mm
01:02 -9.9 °C -12 °C 34716.7 hPa Calm     78 % 0 mm
01:12 -9.9 °C -12.1 °C 34716.7 hPa Calm     78 % 0 mm
01:22 -10 °C -12 °C 34716.7 hPa Calm     79 % 0 mm
01:27 -10.1 °C -12.1 °C 34703.1 hPa Calm     79 % 0 mm
01:32 -10.1 °C -11.9 °C 34703.1 hPa Calm     80 % 0 mm
01:37 -10 °C -12 °C 34703.1 hPa Calm     79 % 0 mm
01:42 -10.1 °C -12.1 °C 34703.1 hPa Calm     79 % 0 mm
01:47 -10.1 °C -12 °C 34703.1 hPa Calm     80 % 0 mm
01:52 -10.1 °C -11.9 °C 34703.1 hPa Calm     81 % 0 mm
01:57 -10.2 °C -11.8 °C 34703.1 hPa Calm     82 % 0 mm
02:02 -10.2 °C -11.9 °C 34703.1 hPa Calm     82 % 0 mm
02:07 -10.2 °C -12 °C 34703.1 hPa Calm     81 % 0 mm
02:12 -10.1 °C -11.9 °C 34703.1 hPa Calm     81 % 0 mm
02:17 -10.1 °C -12 °C 34703.1 hPa Calm     80 % 0 mm
02:22 -10.1 °C -11.9 °C 34703.1 hPa Calm     81 % 0 mm
02:32 -10.1 °C -11.9 °C 34703.1 hPa Calm     80 % 0 mm
02:37 -10.2 °C -12 °C 34703.1 hPa Calm     81 % 0 mm
02:42 -10.4 °C -12.1 °C 34703.1 hPa Calm     82 % 0 mm
02:47 -10.5 °C -11.9 °C 34703.1 hPa Calm     84 % 0 mm
02:52 -10.5 °C -11.9 °C 34703.1 hPa Calm     85 % 0 mm
03:02 -10.6 °C -12 °C 34703.1 hPa Calm     84 % 0 mm
03:12 -10.6 °C -12.1 °C 34703.1 hPa Calm     84 % 0 mm
03:17 -10.7 °C -12.1 °C 34703.1 hPa Calm     84 % 0 mm
03:22 -10.7 °C -12.1 °C 34703.1 hPa Calm     85 % 0 mm
03:32 -10.7 °C -12.1 °C 34703.1 hPa Calm     84 % 0 mm
03:37 -10.7 °C -12.1 °C 34703.1 hPa Calm     85 % 0 mm
03:47 -11 °C -12.4 °C 34703.1 hPa Calm   2.6 km/h 84 % 0 mm
03:57 -10.9 °C -12.6 °C 34703.1 hPa Calm   5.1 km/h 82 % 0 mm
04:02 -10.8 °C -12.5 °C 34703.1 hPa Calm   5.1 km/h 82 % 0 mm
04:12 -10.6 °C -12.5 °C 34703.1 hPa Calm   5.1 km/h 80 % 0 mm
04:17 -10.7 °C -12.6 °C 34703.1 hPa Calm   5.1 km/h 80 % 0 mm
04:22 -10.7 °C -12.6 °C 34703.1 hPa Calm   5.1 km/h 80 % 0 mm
04:27 -10.7 °C -12.6 °C 34703.1 hPa Calm   2.6 km/h 80 % 0 mm
04:32 -10.7 °C -12.8 °C 34703.1 hPa Calm   2.6 km/h 78 % 0 mm
04:37 -10.8 °C -12.8 °C 34716.7 hPa Calm     79 % 0 mm
04:42 -11.1 °C -12.8 °C 34716.7 hPa Calm     81 % 0 mm
04:47 -11.1 °C -12.5 °C 34716.7 hPa Calm     84 % 0 mm
04:52 -11.1 °C -12.5 °C 34716.7 hPa Calm     84 % 0 mm
04:57 -10.9 °C -12.5 °C 34716.7 hPa Calm   2.6 km/h 83 % 0 mm
05:02 -10.9 °C -12.7 °C 34716.7 hPa Calm   2.6 km/h 81 % 0 mm
05:12 -11.1 °C -12.9 °C 34716.7 hPa Calm   2.6 km/h 80 % 0 mm
05:17 -11.2 °C -12.9 °C 34716.7 hPa Calm     82 % 0 mm
05:27 -11.3 °C -13 °C 34716.7 hPa Calm     82 % 0 mm
05:32 -11.4 °C -13 °C 34716.7 hPa Calm     83 % 0 mm
05:37 -11.6 °C -13 °C 34716.7 hPa Calm     84 % 0 mm
05:42 -11.6 °C -12.9 °C 34716.7 hPa Calm     85 % 0 mm
05:47 -11.6 °C -12.9 °C 34716.7 hPa Calm     85 % 0 mm
05:52 -11.5 °C -12.8 °C 34716.7 hPa Calm     85 % 0 mm
05:57 -11.4 °C -12.9 °C 34726.8 hPa Calm   2.6 km/h 84 % 0 mm
06:02 -11.3 °C -12.9 °C 34726.8 hPa Calm   2.6 km/h 82 % 0 mm
06:07 -11.2 °C -13.1 °C 34726.8 hPa Calm   2.6 km/h 80 % 0 mm
06:12 -11 °C -12.9 °C 34726.8 hPa NNW 5.1 km/h 5.1 km/h 79 % 0 mm
06:17 -10.7 °C -12.8 °C 34726.8 hPa Calm   2.6 km/h 78 % 0 mm
06:22 -10.7 °C -12.9 °C 34726.8 hPa Calm   7.7 km/h 76 % 0 mm
06:32 -10.7 °C -13 °C 34740.4 hPa Calm   7.7 km/h 76 % 0 mm
06:42 -10.7 °C -12.9 °C 34740.4 hPa Calm   2.6 km/h 77 % 0 mm
06:52 -10.6 °C -12.9 °C 34740.4 hPa NW 5.1 km/h 5.1 km/h 76 % 0 mm
07:02 -10.6 °C -12.8 °C 34740.4 hPa Calm   7.7 km/h 76 % 0 mm
07:07 -10.5 °C -12.8 °C 34740.4 hPa NNW 2.6 km/h 7.7 km/h 76 % 0 mm
07:12 -10.4 °C -12.8 °C 34740.4 hPa Calm   7.7 km/h 75 % 0 mm
07:17 -10.3 °C -12.8 °C 34740.4 hPa Calm   5.1 km/h 74 % 0 mm
07:22 -10.3 °C -12.8 °C 34740.4 hPa Calm   5.1 km/h 74 % 0 mm
07:27 -10.1 °C -12.7 °C 34740.4 hPa Calm     73 % 0 mm
07:37 -9.6 °C -12.6 °C 34750.5 hPa Calm     70 % 0 mm
07:42 -9.3 °C -12.5 °C 34750.5 hPa Calm     69 % 0 mm
07:47 -9.2 °C -12.6 °C 34750.5 hPa Calm     67 % 0 mm
07:57 -8.9 °C -12.3 °C 34750.5 hPa Calm     67 % 0 mm
08:02 -8.9 °C -12.3 °C 34750.5 hPa Calm     67 % 0 mm
08:07 -8.7 °C -12.1 °C 34750.5 hPa Calm     67 % 0 mm
08:22 -9.1 °C -12.3 °C 34750.5 hPa Calm   5.1 km/h 68 % 0 mm
08:27 -8.9 °C -12.2 °C 34750.5 hPa Calm   5.1 km/h 68 % 0 mm
08:32 -8.7 °C -12.1 °C 34750.5 hPa Calm   5.1 km/h 67 % 0 mm
08:37 -8.6 °C -12.1 °C 34750.5 hPa Calm     66 % 0 mm
08:42 -8.5 °C -12.1 °C 34760.7 hPa Calm     66 % 0 mm
08:47 -8.3 °C -11.9 °C 34760.7 hPa Calm     65 % 0 mm
08:52 -8.3 °C -12.1 °C 34760.7 hPa Calm     64 % 0 mm
08:57 -8.1 °C -11.9 °C 34760.7 hPa Calm     64 % 0 mm
09:02 -7.9 °C -11.8 °C 34760.7 hPa East 5.1 km/h   64 % 0 mm
09:07 -7.9 °C -11.7 °C 34760.7 hPa Calm   7.7 km/h 65 % 0 mm
09:17 -7.9 °C -11.6 °C 34760.7 hPa Calm   7.7 km/h 65 % 0 mm
09:22 -7.6 °C -11.4 °C 34760.7 hPa ENE 2.6 km/h 7.7 km/h 64 % 0 mm
09:32 -7.5 °C -11.5 °C 34760.7 hPa SSE 2.6 km/h 7.7 km/h 63 % 0 mm
09:42 -7.4 °C -11.2 °C 34774.2 hPa Calm   10.3 km/h 64 % 0 mm
09:47 -7.3 °C -11.3 °C 34760.7 hPa SE 2.6 km/h 10.3 km/h 63 % 0 mm
09:52 -7.4 °C -11.4 °C 34760.7 hPa East 7.7 km/h 10.3 km/h 63 % 0 mm
09:57 -7.3 °C -11.2 °C 34774.2 hPa Calm   10.3 km/h 64 % 0 mm
10:12 -7 °C -11 °C 34760.7 hPa SE 2.6 km/h 10.3 km/h 63 % 0 mm
10:22 -7.1 °C -11.2 °C 34760.7 hPa ESE 2.6 km/h 12.9 km/h 62 % 0 mm
10:27 -7 °C -11.2 °C 34760.7 hPa East 2.6 km/h 12.9 km/h 62 % 0 mm
10:32 -6.9 °C -11.1 °C 34760.7 hPa East 2.6 km/h 7.7 km/h 62 % 0 mm
10:37 -6.8 °C -10.9 °C 34760.7 hPa ENE 7.7 km/h 7.7 km/h 62 % 0 mm
10:42 -6.7 °C -11.2 °C 34760.7 hPa Calm   7.7 km/h 60 % 0 mm
10:47 -6.5 °C -11.1 °C 34760.7 hPa Calm   7.7 km/h 59 % 0 mm
10:52 -6.6 °C -11.3 °C 34760.7 hPa West 5.1 km/h 7.7 km/h 58 % 0 mm
10:57 -6.6 °C -11.2 °C 34760.7 hPa SE 5.1 km/h 7.7 km/h 59 % 0 mm
11:02 -6.4 °C -11.2 °C 34760.7 hPa South 5.1 km/h 10.3 km/h 58 % 0 mm
11:07 -6.3 °C -11.1 °C 34760.7 hPa SE 2.6 km/h 10.3 km/h 58 % 0 mm
11:12 -6.2 °C -11.1 °C 34760.7 hPa East 7.7 km/h 10.3 km/h 57 % 0 mm
11:17 -6.3 °C -11.2 °C 34760.7 hPa NE 12.9 km/h 12.9 km/h 57 % 0 mm
11:22 -6.3 °C -11.2 °C 34760.7 hPa SSW 10.3 km/h 12.9 km/h 57 % 0 mm
11:27 -6.4 °C -11.3 °C 34760.7 hPa SSW 5.1 km/h 12.9 km/h 57 % 0 mm
11:32 -6.2 °C -11 °C 34760.7 hPa ESE 5.1 km/h 12.9 km/h 58 % 0 mm
11:37 -6.1 °C -11.2 °C 34760.7 hPa Calm   12.9 km/h 56 % 0 mm
11:42 -6.1 °C -11.1 °C 34760.7 hPa SE 5.1 km/h 10.3 km/h 56 % 0 mm
11:47 -5.9 °C -10.9 °C 34760.7 hPa ENE 7.7 km/h 10.3 km/h 56 % 0 mm
11:52 -5.7 °C -11.1 °C 34760.7 hPa East 2.6 km/h 10.3 km/h 54 % 0 mm
12:02 -5.9 °C -10.9 °C 34760.7 hPa Calm   15.6 km/h 57 % 0 mm
12:12 -5.8 °C -10.9 °C 34750.5 hPa Calm   20.8 km/h 56 % 0 mm
12:17 -5.5 °C -10.9 °C 34750.5 hPa West 2.6 km/h 20.8 km/h 54 % 0 mm
12:22 -5.3 °C -10.8 °C 34750.5 hPa SSE 5.1 km/h 20.8 km/h 54 % 0 mm
12:32 -5.1 °C -10.9 °C 34750.5 hPa SSW 10.3 km/h 12.9 km/h 52 % 0 mm
12:42 -4.9 °C -10.7 °C 34750.5 hPa SE 10.3 km/h 15.6 km/h 52 % 0 mm
12:47 -5.1 °C -10.8 °C 34750.5 hPa SW 5.1 km/h 15.6 km/h 52 % 0 mm
12:52 -4.9 °C -10.7 °C 34750.5 hPa WSW 5.1 km/h 12.9 km/h 52 % 0 mm
12:57 -4.8 °C -10.6 °C 34750.5 hPa ENE 7.7 km/h 12.9 km/h 52 % 0 mm
13:02 -4.7 °C -10.4 °C 34740.4 hPa Calm   10.3 km/h 52 % 0 mm
13:07 -4.6 °C -10.7 °C 34740.4 hPa Calm   12.9 km/h 50 % 0 mm
13:12 -4.4 °C -10.6 °C 34740.4 hPa SSE 7.7 km/h 12.9 km/h 50 % 0 mm
13:17 -4.6 °C -10.7 °C 34740.4 hPa West 5.1 km/h 18.2 km/h 50 % 0 mm
13:22 -4.6 °C -10.7 °C 34740.4 hPa NNW 5.1 km/h 18.2 km/h 50 % 0 mm
13:32 -4.6 °C -10.4 °C 34740.4 hPa Calm   12.9 km/h 52 % 0 mm
13:42 -4.1 °C -10.4 °C 34740.4 hPa Calm   12.9 km/h 49 % 0 mm
13:47 -3.8 °C -10.3 °C 34740.4 hPa SE 5.1 km/h 15.6 km/h 48 % 0 mm
13:52 -3.8 °C -10.6 °C 34740.4 hPa ENE 10.3 km/h 18.2 km/h 47 % 0 mm
13:57 -4.1 °C -10.6 °C 34740.4 hPa ENE 12.9 km/h 18.2 km/h 48 % 0 mm
14:02 -4.3 °C -10.4 °C 34740.4 hPa ENE 5.1 km/h 20.8 km/h 50 % 0 mm
14:12 -4 °C -10.3 °C 34726.8 hPa Calm   20.8 km/h 49 % 0 mm
14:17 -3.7 °C -10.3 °C 34726.8 hPa Calm   12.9 km/h 48 % 0 mm
14:22 -3.7 °C -10.4 °C 34726.8 hPa NNE 15.6 km/h 15.6 km/h 47 % 0 mm
14:32 -4 °C -10.6 °C 34716.7 hPa North 2.6 km/h 25.9 km/h 48 % 0 mm
14:37 -3.9 °C -10.4 °C 34716.7 hPa NNE 10.3 km/h 25.9 km/h 48 % 0 mm
14:42 -3.8 °C -10.2 °C 34716.7 hPa ENE 7.7 km/h 25.9 km/h 49 % 0 mm
14:52 -3.7 °C -10.2 °C 34716.7 hPa NW 15.6 km/h 18.2 km/h 48 % 0 mm
15:02 -3.4 °C -10.3 °C 34716.7 hPa SW 12.9 km/h 23.3 km/h 46 % 0 mm
15:07 -3.6 °C -10.5 °C 34716.7 hPa WSW 5.1 km/h 23.3 km/h 46 % 0 mm
15:12 -3.6 °C -10.3 °C 34716.7 hPa NE 10.3 km/h 12.9 km/h 47 % 0 mm
15:22 -3.3 °C -10.2 °C 34716.7 hPa NNW 12.9 km/h 15.6 km/h 46 % 0 mm
15:27 -3.2 °C -10.1 °C 34716.7 hPa NW 12.9 km/h 18.2 km/h 46 % 0 mm
15:32 -3.2 °C -10.2 °C 34716.7 hPa NNW 10.3 km/h 18.2 km/h 46 % 0 mm
15:42 -3.1 °C -10.3 °C 34703.1 hPa Calm   20.8 km/h 45 % 0 mm
15:47 -3 °C -10.2 °C 34716.7 hPa Calm   20.8 km/h 45 % 0 mm
15:57 -2.9 °C -10.1 °C 34703.1 hPa SW 5.1 km/h 12.9 km/h 45 % 0 mm
16:02 -2.9 °C -10.1 °C 34703.1 hPa WSW 7.7 km/h 15.6 km/h 45 % 0 mm
16:17 -2.8 °C -10.2 °C 34703.1 hPa North 23.3 km/h 23.3 km/h 44 % 0 mm
16:22 -2.9 °C -10.1 °C 34703.1 hPa North 2.6 km/h 23.3 km/h 45 % 0 mm
16:27 -2.7 °C -10.1 °C 34703.1 hPa NNW 7.7 km/h 23.3 km/h 44 % 0 mm
16:32 -2.8 °C -10 °C 34703.1 hPa NNW 10.3 km/h 23.3 km/h 45 % 0 mm
16:37 -2.8 °C -10.2 °C 34703.1 hPa West 5.1 km/h 15.6 km/h 44 % 0 mm
16:42 -2.7 °C -10.1 °C 34703.1 hPa NNW 10.3 km/h 15.6 km/h 44 % 0 mm
16:47 -2.9 °C -10.1 °C 34703.1 hPa WNW 12.9 km/h 20.8 km/h 45 % 0 mm
16:52 -3 °C -10.2 °C 34703.1 hPa West 5.1 km/h 20.8 km/h 45 % 0 mm
16:57 -2.9 °C -10.1 °C 34703.1 hPa East 2.6 km/h 20.8 km/h 45 % 0 mm
17:02 -2.8 °C -10.2 °C 34703.1 hPa NNE 18.2 km/h 18.2 km/h 44 % 0 mm
17:12 -3 °C -10.2 °C 34693 hPa ENE 2.6 km/h 23.3 km/h 45 % 0 mm
17:17 -2.9 °C -10.1 °C 34693 hPa NW 5.1 km/h 23.3 km/h 45 % 0 mm
17:27 -2.9 °C -10.1 °C 34693 hPa NW 2.6 km/h 15.6 km/h 45 % 0 mm
17:32 -2.9 °C -10.1 °C 34693 hPa ENE 5.1 km/h 15.6 km/h 45 % 0 mm
17:42 -2.8 °C -10 °C 34693 hPa North 12.9 km/h 20.8 km/h 45 % 0 mm
17:47 -2.6 °C -10 °C 34693 hPa NNW 5.1 km/h 20.8 km/h 44 % 0 mm
17:52 -2.6 °C -10.2 °C 34693 hPa NE 10.3 km/h 20.8 km/h 43 % 0 mm
17:57 -2.6 °C -10.2 °C 34693 hPa NNE 5.1 km/h 18.2 km/h 43 % 0 mm
18:02 -2.4 °C -10.3 °C 34693 hPa Calm   15.6 km/h 42 % 0 mm
18:12 -2.3 °C -10.2 °C 34693 hPa WNW 10.3 km/h 15.6 km/h 42 % 0 mm
18:17 -2.4 °C -10.2 °C 34693 hPa NW 7.7 km/h 31.1 km/h 42 % 0 mm
18:22 -2.4 °C -10.1 °C 34682.8 hPa ENE 5.1 km/h 31.1 km/h 43 % 0 mm
18:27 -2.4 °C -10.1 °C 34682.8 hPa NE 5.1 km/h 18.2 km/h 43 % 0 mm
18:32 -2.5 °C -9.9 °C 34682.8 hPa NW 5.1 km/h 18.2 km/h 44 % 0 mm
18:37 -2.6 °C -9.9 °C 34682.8 hPa NNE 12.9 km/h 23.3 km/h 44 % 0 mm
18:42 -2.7 °C -10.1 °C 34682.8 hPa NNW 2.6 km/h 23.3 km/h 44 % 0 mm
18:52 -2.4 °C -9.8 °C 34682.8 hPa Calm   20.8 km/h 44 % 0 mm
18:57 -2.6 °C -9.9 °C 34682.8 hPa NE 5.1 km/h 20.8 km/h 44 % 0 mm
19:02 -2.7 °C -10.1 °C 34682.8 hPa NNE 2.6 km/h 23.3 km/h 44 % 0 mm
19:12 -2.8 °C -9.8 °C 34682.8 hPa NE 15.6 km/h 23.3 km/h 46 % 0 mm
19:17 -2.9 °C -9.7 °C 34682.8 hPa NE 10.3 km/h 23.3 km/h 47 % 0 mm
19:22 -2.9 °C -9.7 °C 34682.8 hPa NNE 15.6 km/h 23.3 km/h 47 % 0 mm
19:27 -3 °C -9.8 °C 34682.8 hPa NNE 12.9 km/h 23.3 km/h 47 % 0 mm
19:32 -3.1 °C -9.7 °C 34682.8 hPa NW 5.1 km/h 25.9 km/h 48 % 0 mm
19:37 -3.1 °C -9.7 °C 34682.8 hPa ENE 7.7 km/h 25.9 km/h 48 % 0 mm
19:42 -3.1 °C -9.7 °C 34682.8 hPa ENE 7.7 km/h 25.9 km/h 48 % 0 mm
19:52 -3.2 °C -9.7 °C 34682.8 hPa NE 7.7 km/h 18.2 km/h 49 % 0 mm
19:57 -3.3 °C -9.7 °C 34682.8 hPa ENE 7.7 km/h 20.8 km/h 49 % 0 mm
20:02 -3.3 °C -9.6 °C 34682.8 hPa ENE 5.1 km/h 20.8 km/h 50 % 0 mm
20:12 -3.4 °C -9.7 °C 34682.8 hPa NNE 7.7 km/h 20.8 km/h 50 % 0 mm
20:17 -3.5 °C -9.7 °C 34669.3 hPa NE 7.7 km/h 20.8 km/h 50 % 0 mm
20:22 -3.6 °C -9.7 °C 34669.3 hPa NE 10.3 km/h 20.8 km/h 51 % 0 mm
20:27 -3.7 °C -9.7 °C 34669.3 hPa NE 12.9 km/h 20.8 km/h 51 % 0 mm
20:32 -3.8 °C -9.7 °C 34669.3 hPa NE 5.1 km/h 20.8 km/h 52 % 0 mm
20:37 -3.8 °C -9.7 °C 34669.3 hPa NE 7.7 km/h 20.8 km/h 52 % 0 mm
20:42 -3.9 °C -9.6 °C 34669.3 hPa NE 5.1 km/h 12.9 km/h 53 % 0 mm
20:52 -4.1 °C -9.6 °C 34669.3 hPa NE 5.1 km/h 12.9 km/h 54 % 0 mm
20:57 -4.3 °C -9.6 °C 34669.3 hPa NE 5.1 km/h 10.3 km/h 55 % 0 mm
21:12 -4.8 °C -9.7 °C 34669.3 hPa Calm   5.1 km/h 58 % 0 mm
21:17 -4.9 °C -9.7 °C 34669.3 hPa Calm   5.1 km/h 59 % 0 mm
21:22 -5.1 °C -9.7 °C 34669.3 hPa Calm   5.1 km/h 59 % 0 mm
21:32 -5.2 °C -9.8 °C 34669.3 hPa Calm   2.6 km/h 60 % 0 mm
21:37 -5.4 °C -9.8 °C 34669.3 hPa Calm   2.6 km/h 61 % 0 mm
21:42 -5.5 °C -9.7 °C 34682.8 hPa Calm   2.6 km/h 62 % 0 mm
21:47 -5.6 °C -9.8 °C 34682.8 hPa Calm   2.6 km/h 62 % 0 mm
21:52 -5.7 °C -9.9 °C 34682.8 hPa Calm   2.6 km/h 62 % 0 mm
21:57 -5.8 °C -9.8 °C 34682.8 hPa Calm     63 % 0 mm
22:02 -5.9 °C -9.9 °C 34682.8 hPa Calm     64 % 0 mm
22:07 -6.1 °C -10 °C 34682.8 hPa Calm     64 % 0 mm
22:12 -6.2 °C -9.9 °C 34682.8 hPa Calm     65 % 0 mm
22:17 -6.2 °C -10 °C 34682.8 hPa Calm     65 % 0 mm
22:22 -6.3 °C -9.9 °C 34682.8 hPa Calm     66 % 0 mm
22:32 -6.3 °C -10 °C 34682.8 hPa Calm     66 % 0 mm
22:37 -6.4 °C -10.1 °C 34682.8 hPa Calm     66 % 0 mm
22:42 -6.6 °C -10.1 °C 34682.8 hPa Calm     67 % 0 mm
22:47 -6.6 °C -9.9 °C 34682.8 hPa Calm     69 % 0 mm
22:52 -6.7 °C -9.9 °C 34682.8 hPa Calm     69 % 0 mm
22:57 -6.8 °C -9.9 °C 34682.8 hPa Calm     70 % 0 mm
23:02 -6.9 °C -9.9 °C 34682.8 hPa Calm     71 % 0 mm
23:12 -6.8 °C -9.8 °C 34682.8 hPa Calm     71 % 0 mm
23:17 -6.9 °C -10 °C 34682.8 hPa Calm     70 % 0 mm
23:22 -6.9 °C -9.9 °C 34682.8 hPa Calm     71 % 0 mm
23:27 -7 °C -10 °C 34682.8 hPa Calm     71 % 0 mm
23:32 -6.9 °C -9.9 °C 34682.8 hPa Calm     71 % 0 mm
23:37 -6.9 °C -9.9 °C 34682.8 hPa Calm     71 % 0 mm
23:42 -7 °C -9.9 °C 34682.8 hPa Calm     72 % 0 mm
23:47 -7.1 °C -9.9 °C 34682.8 hPa Calm     72 % 0 mm
23:52 -7.1 °C -9.9 °C 34682.8 hPa Calm     72 % 0 mm
23:57 -7.1 °C -9.9 °C 34682.8 hPa Calm     73 % 0 mm
Meteo18
Compliments of Weather Underground - 4 mb

Script developed by  Jim McMurry - jmcmurry@mwt.net Adapted for the template by  Wim van der Kuil - Leuven-Template.eu

You find our weather info also at:

European Weather Network

Weather Underground

Equipment we use:

Weather-station
Davis Vue

Weather-program
Meteobridge

Weather-server
Raspberry PI 2 B+

Provider
1 and 1

Davis Vue

Meteobridge

Raspberry PI 2 B+

1 and 1